Alakanuk, Alaska
Current Conditions -  °F | °C
As of 12:36 AM on Saturday 25 Oct 2014 (Local Time) from PAEM Reporting Station
Overcast Overcast  
Wind Chill: 26°   Ceiling: 1900
Heat Index: 36°   Visibility: 10mi
Dew Point: 28°   Wind: 15mph
Humidity: 75%   Direction: 180°S
Pressure: 29.75"   Gusts: NA
Location:  62.69°N, 164.62°W
Report Text: PAEM 250836Z 18013KT 10SM BKN019 OVC026 02/M02 A2975 RMK AO1
Loading
Personal Weather Stations






























Interactive Weather Map
Tropical Storm Tracking
New forecast layout! Learn more

10-Day Weather Forecast

Advertisements
Track Severe Weather on mobile